Normed Antwerpen — V2DG9 — position and weather

sailwx.info

Track history (hours):
 
Tides and Currents Weather Stations Pressure Air Temp Water Temp Dewpoint Dewpoint Depression Visibility Wind Speed Wind Dir Waves Ship Positions

Normed Antwerpen

Last reported at 2015-Jul-24 16:08 UTC. Time now 2015-Aug-04 09:45 UTC.
Position N 37°45' E 025°53'.
Warning: this ship's position is 10 days out of date.

Length 130 m; draft 6.2 m.

Type: Ship. MMSI: 305210993.

Date/timePositionNaut miles runAvg speedWind from/ knotsBaromVisibWave heightAir tempDewpointWater temp
2015-Jul-24 16:08N 37°45' E 025°53'813.7
2015-Jul-24 15:33N 37°37' E 025°55'1313.3
2015-Jul-24 14:33N 37°24' E 025°59'1313.3
2015-Jul-24 13:33N 37°12' E 026°05'1313.3
2015-Jul-24 12:33N 36°60' E 026°12'1612.7
2015-Jul-24 11:16N 36°48' E 026°26'1013.2
2015-Jul-24 10:31N 36°41' E 026°35'9412.8
2015-Jul-24 03:12N 35°41' E 028°04'812.5
2015-Jul-24 02:33N 35°37' E 028°13'1212.5
2015-Jul-24 01:33N 35°32' E 028°27'12213.2
2015-Jul-23 16:16N 34°38' E 030°41'6112.9
2015-Jul-23 11:33N 34°11' E 031°47'1312.8
2015-Jul-23 10:33N 34°05' E 032°01'1312.7
2015-Jul-23 09:33N 33°60' E 032°14'1312.6
2015-Jul-23 08:33N 33°54' E 032°28'1312.8
2015-Jul-23 07:33N 33°48' E 032°42'1313.2
2015-Jul-23 06:33N 33°42' E 032°56'1313.3
2015-Jul-23 05:33N 33°37' E 033°10'1313.2
2015-Jul-23 04:33N 33°31' E 033°25'1313.2
2015-Jul-23 03:33N 33°25' E 033°39'1313.1
2015-Jul-23 02:33N 33°19' E 033°53'1313.2
2015-Jul-23 01:33N 33°13' E 034°07'1313.3
2015-Jul-23 00:33N 33°07' E 034°21'1313.4
2015-Jul-22 23:33N 33°02' E 034°36'1413.6
2015-Jul-22 22:33N 32°55' E 034°50'1110.9
2015-Jul-22 21:33N 32°49' E 035°01'0 0.0
2015-Jul-22 18:30N 32°49' E 035°01'0 0.0
2015-Jul-22 10:33N 32°49' E 035°01'26 2.4
2015-Jul-21 23:33N 33°09' E 034°40'9 9.2
2015-Jul-21 22:33N 33°16' E 034°33'9 9.3
2015-Jul-21 21:33N 33°23' E 034°26'10 9.9
2015-Jul-21 20:33N 33°30' E 034°18'1010.0
2015-Jul-21 19:33N 33°38' E 034°10'10 9.7
2015-Jul-21 18:33N 33°45' E 034°02'10 9.6
2015-Jul-21 17:33N 33°52' E 033°54'10 9.7
2015-Jul-21 16:33N 33°59' E 033°47'1010.0
2015-Jul-21 15:33N 34°07' E 033°39'10 9.7
2015-Jul-21 14:33N 34°14' E 033°31'10 9.4
2015-Jul-21 13:33N 34°21' E 033°23'1111.6
2015-Jul-21 12:33N 34°29' E 033°13'1313.3
2015-Jul-21 11:33N 34°39' E 033°03'1 0.5
2015-Jul-21 08:33N 34°39' E 033°01'0 0.0
2015-Jul-21 07:33N 34°39' E 033°01'1 0.8
2015-Jul-21 06:33N 34°39' E 033°02'7 6.7
2015-Jul-21 05:33N 34°32' E 033°02'1313.2
2015-Jul-21 04:33N 34°35' E 032°46'11413.9
2015-Jul-20 20:22N 35°30' E 030°44'1614.0
2015-Jul-20 19:15N 35°38' E 030°27'1013.8
2015-Jul-20 18:29N 35°43' E 030°16'7913.0
2015-Jul-20 12:26N 36°32' E 028°60'68 4.0
2015-Jul-19 19:32N 36°20' E 027°36'4812.1
2015-Jul-19 15:33N 36°12' E 026°37'1212.3
2015-Jul-19 14:33N 36°10' E 026°22'1212.2
2015-Jul-19 13:33N 36°10' E 026°07'1212.1
2015-Jul-19 12:33N 36°09' E 025°52'1511.9
2015-Jul-19 11:20N 36°08' E 025°34'911.9
2015-Jul-19 10:33N 36°08' E 025°22'1212.3
2015-Jul-19 09:33N 36°07' E 025°07'1212.1
2015-Jul-19 08:33N 36°07' E 024°52'1212.0
2015-Jul-19 07:33N 36°06' E 024°37'41512.2
2015-Jul-17 21:33N 36°16' E 016°03'1312.8
2015-Jul-17 20:33N 36°16' E 015°47'1312.4
2015-Jul-17 19:29N 36°17' E 015°31'1112.0
2015-Jul-17 18:33N 36°17' E 015°17'1211.9
2015-Jul-17 17:33N 36°18' E 015°02'1212.3
2015-Jul-17 16:33N 36°18' E 014°47'1212.1
2015-Jul-17 15:33N 36°19' E 014°32'1212.3
2015-Jul-17 14:33N 36°23' E 014°17'1212.4
2015-Jul-17 13:33N 36°27' E 014°03'1212.5
2015-Jul-17 12:33N 36°31' E 013°48'1312.6
2015-Jul-17 11:33N 36°35' E 013°33'1312.6
2015-Jul-17 10:33N 36°40' E 013°19'1312.7
2015-Jul-17 09:33N 36°44' E 013°04'1312.9
2015-Jul-17 08:33N 36°48' E 012°49'1312.5
2015-Jul-17 07:33N 36°52' E 012°33'1313.0
2015-Jul-17 06:33N 36°56' E 012°18'1312.7
2015-Jul-17 05:33N 37°01' E 012°03'1212.5
2015-Jul-17 04:33N 37°05' E 011°49'1612.5
2015-Jul-17 03:17N 37°13' E 011°32'1012.8
2015-Jul-17 02:32N 37°18' E 011°21'1312.5
2015-Jul-17 01:32N 37°24' E 011°08'1612.7
2015-Jul-17 00:16N 37°32' E 010°50'1013.4
2015-Jul-16 23:30N 37°38' E 010°39'3812.9
2015-Jul-16 20:33N 37°57' E 009°57'2612.4
2015-Jul-16 18:28N 38°10' E 009°29'1211.8
2015-Jul-16 17:28N 38°16' E 009°16'1411.7
2015-Jul-16 16:14N 38°23' E 009°00'811.5
2015-Jul-16 15:33N 38°27' E 008°52'1211.6
2015-Jul-16 14:33N 38°34' E 008°40'14812.1
2015-Jul-16 02:21N 40°56' E 007°47'1012.3
2015-Jul-16 01:33N 41°06' E 007°45'1312.2
2015-Jul-16 00:30N 41°19' E 007°43'1212.4
2015-Jul-15 23:32N 41°30' E 007°41'1312.4
2015-Jul-15 22:29N 41°43' E 007°39'1212.6
2015-Jul-15 21:33N 41°55' E 007°37'1312.6
2015-Jul-15 20:33N 42°07' E 007°35'1812.6
2015-Jul-15 19:09N 42°25' E 007°32'712.4
2015-Jul-15 18:33N 42°32' E 007°31'1212.4
2015-Jul-15 17:33N 42°44' E 007°29'1312.7
2015-Jul-15 16:33N 42°57' E 007°26'2612.7
2015-Jul-15 14:32N 43°22' E 007°22'1312.9
2015-Jul-15 13:33N 43°35' E 007°20'7 1.0
2015-Jul-15 07:10N 43°42' E 007°19'0 0.0
2015-Jul-15 06:28N 43°42' E 007°19'0 0.0
2015-Jul-15 04:15N 43°42' E 007°19'0 0.1
2015-Jul-15 03:33N 43°42' E 007°19'3 2.6
2015-Jul-15 02:33N 43°40' E 007°17'10 9.8
2015-Jul-15 01:33N 43°30' E 007°13'10 9.7
2015-Jul-15 00:33N 43°20' E 007°12'7 7.3
2015-Jul-14 23:33N 43°13' E 007°10'1 0.5
2015-Jul-14 22:33N 43°14' E 007°10'0 0.4
2015-Jul-14 21:33N 43°14' E 007°10'0 0.3
2015-Jul-14 20:26N 43°14' E 007°11'0 0.3
2015-Jul-14 19:32N 43°15' E 007°11'0 0.3
2015-Jul-14 18:29N 43°15' E 007°11'0 0.3
2015-Jul-14 17:33N 43°15' E 007°11'0 0.2
2015-Jul-14 16:33N 43°15' E 007°11'  
Track history (hours):
 
Tides and Currents Weather Stations Pressure Air Temp Water Temp Dewpoint Dewpoint Depression Visibility Wind Speed Wind Dir Waves Ship Positions

Normed Antwerpen

Last reported at 2015-Jul-24 16:08 UTC. Time now 2015-Aug-04 09:45 UTC.
Position N 37°45' E 025°53'.
Warning: this ship's position is 10 days out of date.

Length 130 m; draft 6.2 m.

Type: Ship. MMSI: 305210993.

Date/timePositionNaut miles runAvg speedWind from/ knotsBaromVisibWave heightAir tempDewpointWater temp
2015-Jul-24 16:08N 37°45' E 025°53'813.7
2015-Jul-24 15:33N 37°37' E 025°55'1313.3
2015-Jul-24 14:33N 37°24' E 025°59'1313.3
2015-Jul-24 13:33N 37°12' E 026°05'1313.3
2015-Jul-24 12:33N 36°60' E 026°12'1612.7
2015-Jul-24 11:16N 36°48' E 026°26'1013.2
2015-Jul-24 10:31N 36°41' E 026°35'9412.8
2015-Jul-24 03:12N 35°41' E 028°04'812.5
2015-Jul-24 02:33N 35°37' E 028°13'1212.5
2015-Jul-24 01:33N 35°32' E 028°27'12213.2
2015-Jul-23 16:16N 34°38' E 030°41'6112.9
2015-Jul-23 11:33N 34°11' E 031°47'1312.8
2015-Jul-23 10:33N 34°05' E 032°01'1312.7
2015-Jul-23 09:33N 33°60' E 032°14'1312.6
2015-Jul-23 08:33N 33°54' E 032°28'1312.8
2015-Jul-23 07:33N 33°48' E 032°42'1313.2
2015-Jul-23 06:33N 33°42' E 032°56'1313.3
2015-Jul-23 05:33N 33°37' E 033°10'1313.2
2015-Jul-23 04:33N 33°31' E 033°25'1313.2
2015-Jul-23 03:33N 33°25' E 033°39'1313.1
2015-Jul-23 02:33N 33°19' E 033°53'1313.2
2015-Jul-23 01:33N 33°13' E 034°07'1313.3
2015-Jul-23 00:33N 33°07' E 034°21'1313.4
2015-Jul-22 23:33N 33°02' E 034°36'1413.6
2015-Jul-22 22:33N 32°55' E 034°50'1110.9
2015-Jul-22 21:33N 32°49' E 035°01'0 0.0
2015-Jul-22 18:30N 32°49' E 035°01'0 0.0
2015-Jul-22 10:33N 32°49' E 035°01'26 2.4
2015-Jul-21 23:33N 33°09' E 034°40'9 9.2
2015-Jul-21 22:33N 33°16' E 034°33'9 9.3
2015-Jul-21 21:33N 33°23' E 034°26'10 9.9
2015-Jul-21 20:33N 33°30' E 034°18'1010.0
2015-Jul-21 19:33N 33°38' E 034°10'10 9.7
2015-Jul-21 18:33N 33°45' E 034°02'10 9.6
2015-Jul-21 17:33N 33°52' E 033°54'10 9.7
2015-Jul-21 16:33N 33°59' E 033°47'1010.0
2015-Jul-21 15:33N 34°07' E 033°39'10 9.7
2015-Jul-21 14:33N 34°14' E 033°31'10 9.4
2015-Jul-21 13:33N 34°21' E 033°23'1111.6
2015-Jul-21 12:33N 34°29' E 033°13'1313.3
2015-Jul-21 11:33N 34°39' E 033°03'1 0.5
2015-Jul-21 08:33N 34°39' E 033°01'0 0.0
2015-Jul-21 07:33N 34°39' E 033°01'1 0.8
2015-Jul-21 06:33N 34°39' E 033°02'7 6.7
2015-Jul-21 05:33N 34°32' E 033°02'1313.2
2015-Jul-21 04:33N 34°35' E 032°46'11413.9
2015-Jul-20 20:22N 35°30' E 030°44'1614.0
2015-Jul-20 19:15N 35°38' E 030°27'1013.8
2015-Jul-20 18:29N 35°43' E 030°16'7913.0
2015-Jul-20 12:26N 36°32' E 028°60'68 4.0
2015-Jul-19 19:32N 36°20' E 027°36'4812.1
2015-Jul-19 15:33N 36°12' E 026°37'1212.3
2015-Jul-19 14:33N 36°10' E 026°22'1212.2
2015-Jul-19 13:33N 36°10' E 026°07'1212.1
2015-Jul-19 12:33N 36°09' E 025°52'1511.9
2015-Jul-19 11:20N 36°08' E 025°34'911.9
2015-Jul-19 10:33N 36°08' E 025°22'1212.3
2015-Jul-19 09:33N 36°07' E 025°07'1212.1
2015-Jul-19 08:33N 36°07' E 024°52'1212.0
2015-Jul-19 07:33N 36°06' E 024°37'41512.2
2015-Jul-17 21:33N 36°16' E 016°03'1312.8
2015-Jul-17 20:33N 36°16' E 015°47'1312.4
2015-Jul-17 19:29N 36°17' E 015°31'1112.0
2015-Jul-17 18:33N 36°17' E 015°17'1211.9
2015-Jul-17 17:33N 36°18' E 015°02'1212.3
2015-Jul-17 16:33N 36°18' E 014°47'1212.1
2015-Jul-17 15:33N 36°19' E 014°32'1212.3
2015-Jul-17 14:33N 36°23' E 014°17'1212.4
2015-Jul-17 13:33N 36°27' E 014°03'1212.5
2015-Jul-17 12:33N 36°31' E 013°48'1312.6
2015-Jul-17 11:33N 36°35' E 013°33'1312.6
2015-Jul-17 10:33N 36°40' E 013°19'1312.7
2015-Jul-17 09:33N 36°44' E 013°04'1312.9
2015-Jul-17 08:33N 36°48' E 012°49'1312.5
2015-Jul-17 07:33N 36°52' E 012°33'1313.0
2015-Jul-17 06:33N 36°56' E 012°18'1312.7
2015-Jul-17 05:33N 37°01' E 012°03'1212.5
2015-Jul-17 04:33N 37°05' E 011°49'1612.5
2015-Jul-17 03:17N 37°13' E 011°32'1012.8
2015-Jul-17 02:32N 37°18' E 011°21'1312.5
2015-Jul-17 01:32N 37°24' E 011°08'1612.7
2015-Jul-17 00:16N 37°32' E 010°50'1013.4
2015-Jul-16 23:30N 37°38' E 010°39'3812.9
2015-Jul-16 20:33N 37°57' E 009°57'2612.4
2015-Jul-16 18:28N 38°10' E 009°29'1211.8
2015-Jul-16 17:28N 38°16' E 009°16'1411.7
2015-Jul-16 16:14N 38°23' E 009°00'811.5
2015-Jul-16 15:33N 38°27' E 008°52'1211.6
2015-Jul-16 14:33N 38°34' E 008°40'14812.1
2015-Jul-16 02:21N 40°56' E 007°47'1012.3
2015-Jul-16 01:33N 41°06' E 007°45'1312.2
2015-Jul-16 00:30N 41°19' E 007°43'1212.4
2015-Jul-15 23:32N 41°30' E 007°41'1312.4
2015-Jul-15 22:29N 41°43' E 007°39'1212.6
2015-Jul-15 21:33N 41°55' E 007°37'1312.6
2015-Jul-15 20:33N 42°07' E 007°35'1812.6
2015-Jul-15 19:09N 42°25' E 007°32'712.4
2015-Jul-15 18:33N 42°32' E 007°31'1212.4
2015-Jul-15 17:33N 42°44' E 007°29'1312.7
2015-Jul-15 16:33N 42°57' E 007°26'2612.7
2015-Jul-15 14:32N 43°22' E 007°22'1312.9
2015-Jul-15 13:33N 43°35' E 007°20'7 1.0
2015-Jul-15 07:10N 43°42' E 007°19'0 0.0
2015-Jul-15 06:28N 43°42' E 007°19'0 0.0
2015-Jul-15 04:15N 43°42' E 007°19'0 0.1
2015-Jul-15 03:33N 43°42' E 007°19'3 2.6
2015-Jul-15 02:33N 43°40' E 007°17'10 9.8
2015-Jul-15 01:33N 43°30' E 007°13'10 9.7
2015-Jul-15 00:33N 43°20' E 007°12'7 7.3
2015-Jul-14 23:33N 43°13' E 007°10'1 0.5
2015-Jul-14 22:33N 43°14' E 007°10'0 0.4
2015-Jul-14 21:33N 43°14' E 007°10'0 0.3
2015-Jul-14 20:26N 43°14' E 007°11'0 0.3
2015-Jul-14 19:32N 43°15' E 007°11'0 0.3
2015-Jul-14 18:29N 43°15' E 007°11'0 0.3
2015-Jul-14 17:33N 43°15' E 007°11'0 0.2
2015-Jul-14 16:33N 43°15' E 007°11'  

Dump ship's entire track history